createdAt,value
2018-11-01T00:00:28.522Z,69.59
2018-11-01T00:01:28.518Z,70.45
2018-11-01T00:02:28.499Z,70.21
2018-11-01T00:03:28.556Z,68.86
2018-11-01T00:04:28.478Z,69.38
2018-11-01T00:05:28.502Z,69.17
2018-11-01T00:06:28.460Z,68.55
2018-11-01T00:07:28.455Z,67.35
2018-11-01T00:08:28.470Z,66.21
2018-11-01T00:09:28.611Z,68.00
2018-11-01T00:10:28.421Z,68.65
2018-11-01T00:11:28.419Z,68.34
2018-11-01T00:12:28.405Z,68.86
2018-11-01T00:13:28.440Z,69.38
2018-11-01T00:14:28.383Z,69.93
2018-11-01T00:15:28.392Z,69.59
2018-11-01T00:16:28.377Z,70.21
2018-11-01T00:17:28.360Z,70.10
2018-11-01T00:18:28.361Z,70.00
2018-11-01T00:19:28.320Z,69.38
2018-11-01T00:20:28.313Z,68.34
2018-11-01T00:21:28.703Z,69.59
2018-11-01T00:22:30.430Z,70.45
2018-11-01T00:23:28.396Z,69.93
2018-11-01T00:24:37.041Z,70.04
2018-11-01T00:25:28.251Z,70.14
2018-11-01T00:26:28.285Z,70.14
2018-11-01T00:27:28.259Z,70.04
2018-11-01T00:28:28.224Z,70.14
2018-11-01T00:29:28.241Z,70.45
2018-11-01T00:30:28.267Z,69.69
2018-11-01T00:31:28.240Z,69.69
2018-11-01T00:32:28.197Z,70.04
2018-11-01T00:33:28.170Z,69.69
2018-11-01T00:34:28.166Z,70.14
2018-11-01T00:35:28.182Z,70.14
2018-11-01T00:36:28.154Z,70.56
2018-11-01T00:37:28.120Z,70.14
2018-11-01T00:38:28.115Z,70.45
2018-11-01T00:39:28.108Z,69.90
2018-11-01T00:40:28.138Z,69.52
2018-11-01T00:41:28.078Z,69.59
2018-11-01T00:42:28.082Z,70.35
2018-11-01T00:43:28.098Z,69.07
2018-11-01T00:44:28.042Z,67.07
2018-11-01T00:45:28.041Z,66.00
2018-11-01T00:46:28.027Z,66.62
2018-11-01T00:47:28.010Z,67.58
2018-11-01T00:48:27.997Z,65.66
2018-11-01T00:49:28.009Z,65.77
2018-11-01T00:50:27.996Z,66.18
2018-11-01T00:51:28.030Z,66.75
2018-11-01T00:52:27.952Z,69.04
2018-11-01T00:53:27.942Z,69.17
2018-11-01T00:54:27.932Z,69.17
2018-11-01T00:55:27.936Z,69.59
2018-11-01T00:56:27.982Z,68.44
2018-11-01T00:57:27.922Z,69.38
2018-11-01T00:58:27.934Z,68.44
2018-11-01T00:59:27.899Z,67.17
2018-11-01T01:00:27.896Z,68.96
2018-11-01T01:01:27.915Z,68.34
2018-11-01T01:02:27.848Z,69.38
2018-11-01T01:03:27.837Z,68.65
2018-11-01T01:04:27.828Z,69.00
2018-11-01T01:05:27.835Z,69.17
2018-11-01T01:06:27.840Z,69.17
2018-11-01T01:07:27.796Z,69.42
2018-11-01T01:08:27.809Z,69.59
2018-11-01T01:09:27.768Z,69.73
2018-11-01T01:10:27.765Z,69.93
2018-11-01T01:11:27.785Z,70.35
2018-11-01T01:12:27.751Z,70.45
2018-11-01T01:13:28.777Z,69.93
2018-11-01T01:14:30.581Z,69.69
2018-11-01T01:15:27.906Z,69.48
2018-11-01T01:16:28.763Z,69.38
2018-11-01T01:17:27.687Z,68.86
2018-11-01T01:18:27.681Z,68.65
2018-11-01T01:19:27.668Z,66.68
2018-11-01T01:20:27.675Z,68.31
2018-11-01T01:21:27.670Z,68.86
2018-11-01T01:22:27.648Z,68.96
2018-11-01T01:23:27.628Z,68.96
2018-11-01T01:24:27.635Z,69.07
2018-11-01T01:25:27.620Z,68.44
2018-11-01T01:26:27.798Z,69.79
2018-11-01T01:27:27.594Z,69.38
2018-11-01T01:28:27.564Z,69.62
2018-11-01T01:29:27.569Z,67.82
2018-11-01T01:30:27.544Z,68.86
2018-11-01T01:31:27.613Z,68.76
2018-11-01T01:32:27.583Z,64.14
2018-11-01T01:33:27.548Z,66.21
2018-11-01T01:34:27.604Z,66.21
2018-11-01T01:35:27.565Z,66.86
2018-11-01T01:36:27.519Z,68.21
2018-11-01T01:37:27.499Z,69.27
2018-11-01T01:38:27.487Z,69.48
2018-11-01T01:39:27.479Z,69.48
2018-11-01T01:40:27.471Z,70.14
2018-11-01T01:41:27.498Z,70.14
2018-11-01T01:42:27.465Z,70.14
2018-11-01T01:43:27.437Z,70.25
2018-11-01T01:44:27.394Z,70.35
2018-11-01T01:45:27.457Z,69.59
2018-11-01T01:46:27.408Z,69.35
2018-11-01T01:47:27.377Z,68.96
2018-11-01T01:48:27.390Z,68.10
2018-11-01T01:49:27.338Z,69.14
2018-11-01T01:50:27.432Z,69.04
2018-11-01T01:51:27.352Z,68.86
2018-11-01T01:52:27.356Z,67.27
2018-11-01T01:53:27.317Z,67.14
2018-11-01T01:54:27.341Z,64.49
2018-11-01T01:55:27.326Z,66.80
2018-11-01T01:56:27.266Z,63.76
2018-11-01T01:57:27.284Z,63.74
2018-11-01T01:58:27.258Z,62.60
2018-11-01T01:59:27.259Z,65.11
2018-11-01T02:00:27.305Z,65.77
2018-11-01T02:01:27.242Z,64.39
2018-11-01T02:02:27.257Z,68.49
2018-11-01T02:03:27.204Z,68.80
2018-11-01T02:04:27.177Z,67.66
2018-11-01T02:05:27.179Z,68.07
2018-11-01T02:06:27.190Z,68.80
2018-11-01T02:07:27.205Z,68.38
2018-11-01T02:08:27.187Z,66.41
2018-11-01T02:09:27.140Z,65.28
2018-11-01T02:10:28.013Z,65.45
2018-11-01T02:11:27.136Z,66.80
2018-11-01T02:12:27.132Z,66.18
2018-11-01T02:13:27.104Z,65.77
2018-11-01T02:14:27.072Z,65.22
2018-11-01T02:15:27.054Z,64.80
2018-11-01T02:16:27.058Z,65.11
2018-11-01T02:17:27.103Z,62.81
2018-11-01T02:18:27.080Z,63.92
2018-11-01T02:19:27.043Z,62.37
2018-11-01T02:20:27.057Z,63.74
2018-11-01T02:21:27.051Z,64.46
2018-11-01T02:22:27.014Z,64.90
2018-11-01T02:23:27.020Z,65.87
2018-11-01T02:24:27.007Z,67.73
2018-11-01T02:25:26.947Z,67.86
2018-11-01T02:26:26.944Z,65.97
2018-11-01T02:27:26.958Z,66.59
2018-11-01T02:28:26.960Z,66.38
2018-11-01T02:29:26.911Z,67.00
2018-11-01T02:30:26.908Z,66.59
2018-11-01T02:31:26.974Z,66.69
2018-11-01T02:32:26.877Z,66.69
2018-11-01T02:33:26.898Z,66.52
2018-11-01T02:34:26.879Z,68.38
2018-11-01T02:35:26.883Z,68.18
2018-11-01T02:36:26.862Z,67.24
2018-11-01T02:37:26.844Z,66.80
2018-11-01T02:38:26.895Z,63.56
2018-11-01T02:39:26.795Z,62.70
2018-11-01T02:40:26.789Z,64.56
2018-11-01T02:41:26.818Z,67.32
2018-11-01T02:42:26.791Z,65.87
2018-11-01T02:43:26.768Z,66.08
2018-11-01T02:44:26.761Z,66.18
2018-11-01T02:45:26.732Z,64.49
2018-11-01T02:46:26.779Z,65.32
2018-11-01T02:47:26.716Z,65.32
2018-11-01T02:48:26.711Z,66.90
2018-11-01T02:49:26.707Z,66.28
2018-11-01T02:50:26.685Z,64.90
2018-11-01T02:51:26.707Z,65.32
2018-11-01T02:52:26.677Z,66.59
2018-11-01T02:53:26.677Z,67.32
2018-11-01T02:54:26.633Z,68.66
2018-11-01T02:55:26.641Z,66.05
2018-11-01T02:56:26.655Z,65.84
2018-11-01T02:57:26.604Z,64.12
2018-11-01T02:58:26.614Z,64.23
2018-11-01T02:59:26.626Z,65.29
2018-11-01T03:00:26.586Z,63.92
2018-11-01T03:01:26.596Z,63.47
2018-11-01T03:02:26.549Z,63.78
2018-11-01T03:03:26.546Z,63.78
2018-11-01T03:04:26.551Z,62.62
2018-11-01T03:05:26.534Z,62.27
2018-11-01T03:06:26.557Z,62.93
2018-11-01T03:07:26.488Z,61.45
2018-11-01T03:08:26.492Z,60.31
2018-11-01T03:09:26.476Z,60.63
2018-11-01T03:10:26.461Z,60.83
2018-11-01T03:11:26.497Z,63.89
2018-11-01T03:12:26.468Z,65.16
2018-11-01T03:13:26.465Z,65.67
2018-11-01T03:14:26.429Z,65.67
2018-11-01T03:15:26.424Z,66.94
2018-11-01T03:16:26.396Z,64.81
2018-11-01T03:17:26.405Z,65.88
2018-11-01T03:18:26.429Z,65.12
2018-11-01T03:19:26.366Z,66.09
2018-11-01T03:20:26.359Z,66.50
2018-11-01T03:21:26.445Z,66.50
2018-11-01T03:22:26.341Z,66.81
2018-11-01T03:23:26.357Z,66.60
2018-11-01T03:24:26.330Z,65.75
2018-11-01T03:25:26.298Z,65.95
2018-11-01T03:26:26.402Z,65.64
2018-11-01T03:27:26.288Z,64.58
2018-11-01T03:28:26.295Z,64.86
2018-11-01T03:29:26.261Z,64.17
2018-11-01T03:30:26.257Z,65.20
2018-11-01T03:31:26.279Z,65.54
2018-11-01T03:32:26.249Z,65.95
2018-11-01T03:33:26.353Z,65.12
2018-11-01T03:34:26.257Z,64.65
2018-11-01T03:35:26.198Z,64.45
2018-11-01T03:36:26.189Z,65.09
2018-11-01T03:37:26.183Z,64.65
2018-11-01T03:38:26.371Z,64.55
2018-11-01T03:39:26.210Z,63.93
2018-11-01T03:40:26.147Z,64.76
2018-11-01T03:41:26.122Z,64.96
2018-11-01T03:42:26.151Z,64.55
2018-11-01T03:43:26.112Z,65.27
2018-11-01T03:44:26.114Z,64.65
2018-11-01T03:45:26.132Z,64.34
2018-11-01T03:46:26.116Z,64.86
2018-11-01T03:47:26.070Z,65.06
2018-11-01T03:48:26.063Z,64.55
2018-11-01T03:49:26.041Z,65.51
2018-11-01T03:50:26.081Z,64.14
2018-11-01T03:51:26.031Z,65.61
2018-11-01T03:52:26.030Z,65.17
2018-11-01T03:53:26.031Z,65.06
2018-11-01T03:54:25.997Z,65.17
2018-11-01T03:55:26.061Z,65.06
2018-11-01T03:56:25.982Z,65.48
2018-11-01T03:57:25.964Z,66.61
2018-11-01T03:58:25.944Z,67.37
2018-11-01T03:59:25.933Z,66.93
2018-11-01T04:00:25.959Z,66.93
2018-11-01T04:01:25.914Z,68.30
2018-11-01T04:02:25.936Z,66.61
2018-11-01T04:03:25.929Z,65.34
2018-11-01T04:04:25.916Z,65.21
2018-11-01T04:05:25.919Z,65.45
2018-11-01T04:06:25.860Z,66.07
2018-11-01T04:07:25.877Z,66.41
2018-11-01T04:08:25.836Z,68.61
2018-11-01T04:09:25.845Z,68.40
2018-11-01T04:10:25.859Z,68.51
2018-11-01T04:11:25.817Z,67.85
2018-11-01T04:12:25.792Z,66.51
2018-11-01T04:13:25.859Z,67.44
2018-11-01T04:14:25.796Z,67.34
2018-11-01T04:15:25.814Z,66.93
2018-11-01T04:16:25.807Z,66.69
2018-11-01T04:17:25.739Z,66.89
2018-11-01T04:18:25.737Z,65.86
2018-11-01T04:19:25.727Z,66.93
2018-11-01T04:20:25.714Z,67.24
2018-11-01T04:21:25.742Z,67.75
2018-11-01T04:22:25.703Z,67.65
2018-11-01T04:23:25.986Z,68.09
2018-11-01T04:24:25.665Z,67.78
2018-11-01T04:25:25.670Z,68.71
2018-11-01T04:26:25.654Z,67.78
2018-11-01T04:27:25.633Z,67.75
2018-11-01T04:28:25.667Z,67.03
2018-11-01T04:29:25.626Z,67.75
2018-11-01T04:30:25.597Z,67.44
2018-11-01T04:31:25.622Z,66.82
2018-11-01T04:32:25.627Z,66.82
2018-11-01T04:33:25.811Z,66.33
2018-11-01T04:34:25.559Z,67.13
2018-11-01T04:35:25.615Z,65.06
2018-11-01T04:36:25.616Z,65.89
2018-11-01T04:37:25.530Z,66.93
2018-11-01T04:38:25.560Z,67.30
2018-11-01T04:39:25.512Z,66.57
2018-11-01T04:40:25.538Z,68.64
2018-11-01T04:41:25.510Z,68.88
2018-11-01T04:42:25.478Z,69.29
2018-11-01T04:43:25.520Z,70.77
2018-11-01T04:44:25.473Z,71.94
2018-11-01T04:45:25.504Z,72.91
2018-11-01T04:46:25.486Z,74.40
2018-11-01T04:47:25.516Z,75.74
2018-11-01T04:48:25.412Z,75.29
2018-11-01T04:49:25.407Z,76.36
2018-11-01T04:50:25.434Z,77.95
2018-11-01T04:51:25.381Z,79.10
2018-11-01T04:52:25.402Z,79.92
2018-11-01T04:53:25.354Z,80.96
2018-11-01T04:54:25.340Z,81.89
2018-11-01T04:55:25.369Z,82.10
2018-11-01T04:56:25.342Z,82.41
2018-11-01T04:57:25.309Z,83.90
2018-11-01T04:58:25.344Z,82.86
2018-11-01T04:59:25.311Z,82.55
2018-11-01T05:00:25.328Z,80.44
2018-11-01T05:01:25.287Z,80.33
2018-11-01T05:02:25.278Z,81.27
2018-11-01T05:03:25.275Z,83.48
2018-11-01T05:04:25.260Z,83.38
2018-11-01T05:05:25.271Z,84.67
2018-11-01T05:06:25.223Z,85.50
2018-11-01T05:07:25.257Z,86.05
2018-11-01T05:08:25.220Z,86.57
2018-11-01T05:09:25.189Z,87.19
2018-11-01T05:10:25.171Z,87.40
2018-11-01T05:11:25.167Z,87.71
2018-11-01T05:12:25.218Z,87.37
2018-11-01T05:13:25.152Z,86.74
2018-11-01T05:14:25.139Z,86.91
2018-11-01T05:15:25.244Z,86.08
2018-11-01T05:16:25.116Z,85.60
2018-11-01T05:17:25.132Z,87.37
2018-11-01T05:18:25.085Z,87.05
2018-11-01T05:19:25.085Z,87.19
2018-11-01T05:20:25.123Z,88.23
2018-11-01T05:21:25.078Z,88.96
2018-11-01T05:22:25.058Z,89.69
2018-11-01T05:23:25.060Z,89.79
2018-11-01T05:24:25.055Z,90.10
2018-11-01T05:25:25.004Z,89.79
2018-11-01T05:26:24.994Z,89.42
2018-11-01T05:27:25.205Z,89.83
2018-11-01T05:28:31.958Z,91.02
2018-11-01T05:29:25.230Z,91.85
2018-11-01T05:30:25.066Z,91.74
2018-11-01T05:31:25.030Z,91.64
2018-11-01T05:32:24.963Z,91.53
2018-11-01T05:33:24.980Z,91.95
2018-11-01T05:34:25.022Z,92.26
2018-11-01T05:35:24.959Z,92.36
2018-11-01T05:36:25.007Z,92.68
2018-11-01T05:37:24.879Z,91.80
2018-11-01T05:38:24.868Z,92.05
2018-11-01T05:39:24.861Z,92.68
2018-11-01T05:40:24.849Z,92.94
2018-11-01T05:41:24.872Z,92.84
2018-11-01T05:42:24.854Z,92.68
2018-11-01T05:43:24.845Z,91.95
2018-11-01T05:44:24.827Z,91.74
2018-11-01T05:45:24.832Z,92.41
2018-11-01T05:46:24.850Z,92.82
2018-11-01T05:47:24.817Z,92.51
2018-11-01T05:48:24.784Z,93.03
2018-11-01T05:49:24.745Z,93.03
2018-11-01T05:50:24.751Z,92.93
2018-11-01T05:51:24.736Z,93.14
2018-11-01T05:52:24.756Z,93.03
2018-11-01T05:53:24.716Z,93.45
2018-11-01T05:54:24.724Z,93.87
2018-11-01T05:55:24.685Z,93.76
2018-11-01T05:56:24.684Z,93.97
2018-11-01T05:57:35.285Z,94.07
2018-11-01T05:58:25.881Z,93.97
2018-11-01T05:59:24.647Z,93.97
2018-11-01T06:00:24.651Z,93.97
2018-11-01T06:01:24.651Z,94.07
2018-11-01T06:02:24.620Z,93.87
2018-11-01T06:03:24.642Z,93.87
2018-11-01T06:04:24.583Z,93.87
2018-11-01T06:05:24.597Z,93.76
2018-11-01T06:06:24.612Z,94.38
2018-11-01T06:07:24.554Z,94.07
2018-11-01T06:08:24.578Z,93.97
2018-11-01T06:09:24.535Z,93.97
2018-11-01T06:10:33.195Z,93.76
2018-11-01T06:11:36.144Z,94.38
2018-11-01T06:12:33.864Z,93.97
2018-11-01T06:13:24.564Z,94.18
2018-11-01T06:14:37.394Z,94.18
2018-11-01T06:15:33.333Z,94.49
2018-11-01T06:16:42.890Z,94.49
2018-11-01T06:18:45.583Z,93.87
2018-11-01T06:19:46.171Z,94.22
2018-11-01T06:20:45.232Z,94.22
2018-11-01T06:21:45.053Z,95.36
2018-11-01T06:22:45.010Z,94.70
2018-11-01T06:23:45.044Z,95.01
2018-11-01T06:24:45.046Z,93.72
2018-11-01T06:25:44.987Z,94.13
2018-11-01T06:26:44.991Z,94.18
2018-11-01T06:27:44.955Z,93.97
2018-11-01T06:28:44.991Z,93.76
2018-11-01T06:29:45.004Z,94.28
2018-11-01T06:30:44.971Z,94.38
2018-11-01T06:31:44.931Z,93.87
2018-11-01T06:32:44.947Z,94.07
2018-11-01T06:33:44.899Z,93.80
2018-11-01T06:34:44.882Z,94.01
2018-11-01T06:35:44.930Z,94.22
2018-11-01T06:36:44.867Z,94.38
2018-11-01T06:37:44.902Z,93.87
2018-11-01T06:38:44.857Z,94.18
2018-11-01T06:39:44.826Z,94.07
2018-11-01T06:40:44.848Z,93.87
2018-11-01T06:41:44.842Z,93.87
2018-11-01T06:42:44.856Z,94.01
2018-11-01T06:43:44.790Z,94.22
2018-11-01T06:44:44.971Z,94.22
2018-11-01T06:45:44.833Z,94.90
2018-11-01T06:46:44.807Z,95.36
2018-11-01T06:47:44.836Z,94.95
2018-11-01T06:48:44.904Z,95.36
2018-11-01T06:49:44.763Z,95.36
2018-11-01T06:50:44.718Z,94.95
2018-11-01T06:51:44.725Z,95.15
2018-11-01T06:52:44.687Z,95.26
2018-11-01T06:53:44.758Z,95.26
2018-11-01T06:54:44.900Z,95.05
2018-11-01T06:55:44.687Z,95.20
2018-11-01T06:56:44.660Z,95.26
2018-11-01T06:57:44.645Z,95.36
2018-11-01T06:58:44.771Z,95.99
2018-11-01T06:59:44.660Z,95.26
2018-11-01T07:00:44.604Z,95.05
2018-11-01T07:01:44.633Z,95.36
2018-11-01T07:02:44.577Z,94.95
2018-11-01T07:03:44.650Z,94.43
2018-11-01T07:04:44.614Z,94.43
2018-11-01T07:05:44.640Z,95.15
2018-11-01T07:06:44.551Z,95.15
2018-11-01T07:07:44.523Z,95.30
2018-11-01T07:08:44.569Z,95.20
2018-11-01T07:09:44.560Z,95.67
2018-11-01T07:10:44.572Z,95.72
2018-11-01T07:11:44.505Z,95.72
2018-11-01T07:12:44.493Z,95.20
2018-11-01T07:13:44.463Z,95.51
2018-11-01T07:14:44.535Z,95.20
2018-11-01T07:15:44.445Z,95.40
2018-11-01T07:16:44.434Z,95.20
2018-11-01T07:17:44.617Z,95.09
2018-11-01T07:18:44.456Z,95.05
2018-11-01T07:19:44.485Z,95.09
2018-11-01T07:20:44.913Z,95.15
2018-11-01T07:21:44.425Z,94.99
2018-11-01T07:22:44.366Z,95.72
2018-11-01T07:23:44.354Z,95.20
2018-11-01T07:24:44.457Z,95.62
2018-11-01T07:25:44.415Z,95.89
2018-11-01T07:26:44.469Z,95.78
2018-11-01T07:27:44.343Z,95.72
2018-11-01T07:28:44.363Z,95.05
2018-11-01T07:29:44.406Z,95.51
2018-11-01T07:30:44.308Z,95.20
2018-11-01T07:31:44.328Z,95.51
2018-11-01T07:32:44.385Z,95.40
2018-11-01T07:33:44.253Z,95.67
2018-11-01T07:34:44.319Z,95.93
2018-11-01T07:35:44.254Z,95.83
2018-11-01T07:36:44.280Z,95.83
2018-11-01T07:37:44.218Z,95.72
2018-11-01T07:38:44.375Z,95.93
2018-11-01T07:39:44.271Z,95.20
2018-11-01T07:40:44.199Z,95.62
2018-11-01T07:41:44.211Z,95.20
2018-11-01T07:42:44.160Z,96.18
2018-11-01T07:43:44.174Z,96.14
2018-11-01T07:44:44.137Z,95.62
2018-11-01T07:45:44.158Z,95.83
2018-11-01T07:46:44.170Z,95.83
2018-11-01T07:47:44.111Z,95.03
2018-11-01T07:48:44.928Z,96.03
2018-11-01T07:49:44.336Z,96.14
2018-11-01T07:50:44.105Z,95.72
2018-11-01T07:51:44.201Z,95.62
2018-11-01T07:52:44.081Z,95.93
2018-11-01T07:53:44.042Z,96.14
2018-11-01T07:54:44.056Z,95.51
2018-11-01T07:55:44.026Z,95.93
2018-11-01T07:56:44.061Z,95.72
2018-11-01T07:57:44.046Z,95.93
2018-11-01T07:58:43.986Z,95.83
2018-11-01T07:59:44.026Z,95.72
2018-11-01T08:00:44.079Z,95.62
2018-11-01T08:01:44.026Z,95.72
2018-11-01T08:02:44.435Z,95.30
2018-11-01T08:03:43.980Z,95.40
2018-11-01T08:04:43.967Z,95.20
2018-11-01T08:05:44.208Z,95.47
2018-11-01T08:06:44.929Z,95.26
2018-11-01T08:07:43.970Z,94.74
2018-11-01T08:08:44.029Z,94.22
2018-11-01T08:09:43.904Z,94.47
2018-11-01T08:10:43.862Z,94.47
2018-11-01T08:11:43.983Z,93.07
2018-11-01T08:12:43.884Z,93.29
2018-11-01T08:13:43.833Z,94.32
2018-11-01T08:14:43.895Z,94.06
2018-11-01T08:15:43.814Z,93.95
2018-11-01T08:16:43.794Z,93.95
2018-11-01T08:17:43.783Z,93.74
2018-11-01T08:18:43.776Z,94.37
2018-11-01T08:19:43.998Z,94.47
2018-11-01T08:20:43.900Z,94.68
2018-11-01T08:21:43.774Z,95.20
2018-11-01T08:22:43.730Z,95.25
2018-11-01T08:23:43.755Z,94.99
2018-11-01T08:24:43.896Z,95.20
2018-11-01T08:25:43.745Z,95.40
2018-11-01T08:26:43.679Z,95.25
2018-11-01T08:27:43.800Z,94.68
2018-11-01T08:28:43.665Z,94.47
2018-11-01T08:29:43.769Z,94.26
2018-11-01T08:30:43.673Z,94.51
2018-11-01T08:31:43.626Z,94.37
2018-11-01T08:32:43.622Z,94.06
2018-11-01T08:33:43.611Z,94.06
2018-11-01T08:34:43.700Z,94.16
2018-11-01T08:35:43.867Z,93.85
2018-11-01T08:36:43.634Z,93.74
2018-11-01T08:37:43.587Z,94.47
2018-11-01T08:38:43.562Z,94.26
2018-11-01T08:39:43.581Z,94.26
2018-11-01T08:40:43.530Z,93.95
2018-11-01T08:41:43.571Z,94.37
2018-11-01T08:42:43.503Z,94.06
2018-11-01T08:43:43.502Z,94.47
2018-11-01T08:44:43.542Z,94.37
2018-11-01T08:45:43.609Z,94.53
2018-11-01T08:46:43.469Z,94.32
2018-11-01T08:47:43.452Z,93.80
2018-11-01T08:48:43.462Z,91.89
2018-11-01T08:49:43.439Z,92.30
2018-11-01T08:50:43.507Z,92.61
2018-11-01T08:51:43.592Z,92.61
2018-11-01T08:52:43.467Z,92.41
2018-11-01T08:53:43.397Z,92.82
2018-11-01T08:54:43.374Z,92.88
2018-11-01T08:55:43.413Z,92.47
2018-11-01T08:56:43.407Z,92.11
2018-11-01T08:57:43.888Z,91.33
2018-11-01T08:58:43.347Z,92.05
2018-11-01T08:59:43.371Z,90.77
2018-11-01T09:00:43.370Z,91.80
2018-11-01T09:01:43.322Z,91.91
2018-11-01T09:02:43.342Z,91.80
2018-11-01T09:03:43.283Z,91.60
2018-11-01T09:04:43.321Z,91.28
2018-11-01T09:05:43.304Z,92.16
2018-11-01T09:06:43.313Z,91.95
2018-11-01T09:07:43.460Z,91.91
2018-11-01T09:08:43.254Z,91.80
2018-11-01T09:09:43.223Z,91.91
2018-11-01T09:10:43.240Z,91.76
2018-11-01T09:11:43.242Z,91.20
2018-11-01T09:12:43.271Z,90.64
2018-11-01T09:13:43.210Z,90.64
2018-11-01T09:14:43.198Z,89.29
2018-11-01T09:15:43.251Z,89.65
2018-11-01T09:16:43.147Z,89.19
2018-11-01T09:17:43.195Z,88.98
2018-11-01T09:18:43.152Z,89.50
2018-11-01T09:19:43.146Z,89.71
2018-11-01T09:20:43.198Z,89.71
2018-11-01T09:21:43.092Z,90.75
2018-11-01T09:22:43.119Z,89.40
2018-11-01T09:23:43.074Z,87.07
2018-11-01T09:24:43.077Z,84.65
2018-11-01T09:25:43.135Z,83.99
2018-11-01T09:26:43.083Z,84.27
2018-11-01T09:27:43.021Z,84.53
2018-11-01T09:28:43.008Z,83.67
2018-11-01T09:29:43.057Z,83.50
2018-11-01T09:30:43.051Z,82.88
2018-11-01T09:31:42.999Z,82.36
2018-11-01T09:32:43.050Z,82.12
2018-11-01T09:33:43.001Z,80.26
2018-11-01T09:34:42.999Z,81.35
2018-11-01T09:35:43.429Z,79.60
2018-11-01T09:36:42.946Z,78.74
2018-11-01T09:37:42.972Z,78.88
2018-11-01T09:38:42.959Z,80.43
2018-11-01T09:39:42.895Z,81.56
2018-11-01T09:40:42.943Z,82.25
2018-11-01T09:41:42.893Z,79.49
2018-11-01T09:42:42.869Z,79.02
2018-11-01T09:43:42.891Z,79.22
2018-11-01T09:44:42.835Z,78.95
2018-11-01T09:45:42.881Z,79.26
2018-11-01T09:46:43.254Z,81.74
2018-11-01T09:47:43.190Z,82.67
2018-11-01T09:48:42.862Z,81.54
2018-11-01T09:49:42.785Z,83.81
2018-11-01T09:50:42.816Z,83.71
2018-11-01T09:51:42.770Z,83.56
2018-11-01T09:52:42.786Z,83.36
2018-11-01T09:53:42.755Z,84.50
2018-11-01T09:54:42.732Z,84.39
2018-11-01T09:55:42.936Z,83.98
2018-11-01T09:56:42.712Z,85.11
2018-11-01T09:57:42.717Z,86.50
2018-11-01T09:58:42.692Z,85.88
2018-11-01T09:59:42.685Z,85.63
2018-11-01T10:00:42.757Z,84.50
2018-11-01T10:01:42.662Z,85.53
2018-11-01T10:02:42.647Z,86.15
2018-11-01T10:03:42.636Z,85.80
2018-11-01T10:04:42.632Z,84.97
2018-11-01T10:05:42.732Z,85.18
2018-11-01T10:06:42.860Z,86.32
2018-11-01T10:07:42.596Z,87.08
2018-11-01T10:08:42.577Z,87.39
2018-11-01T10:09:42.590Z,87.91
2018-11-01T10:10:42.930Z,87.91
2018-11-01T10:11:43.672Z,87.49
2018-11-01T10:12:42.629Z,87.33
2018-11-01T10:13:42.540Z,87.33
2018-11-01T10:14:42.541Z,87.99
2018-11-01T10:15:42.838Z,88.82
2018-11-01T10:16:42.793Z,89.17
2018-11-01T10:17:43.015Z,89.38
2018-11-01T10:18:42.484Z,88.96
2018-11-01T10:19:42.468Z,88.96
2018-11-01T10:20:42.529Z,88.76
2018-11-01T10:21:42.504Z,88.76
2018-11-01T10:22:42.601Z,88.65
2018-11-01T10:23:42.450Z,88.71
2018-11-01T10:24:42.407Z,87.99
2018-11-01T10:25:42.466Z,87.74
2018-11-01T10:26:42.853Z,87.88
2018-11-01T10:27:42.475Z,88.82
2018-11-01T10:28:42.375Z,87.27
2018-11-01T10:29:42.357Z,88.03
2018-11-01T10:30:42.374Z,89.13
2018-11-01T10:31:42.367Z,88.61
2018-11-01T10:32:42.371Z,87.02
2018-11-01T10:33:42.381Z,88.82
2018-11-01T10:34:42.317Z,89.17
2018-11-01T10:35:42.295Z,90.41
2018-11-01T10:36:42.387Z,90.56
2018-11-01T10:37:42.267Z,91.60
2018-11-01T10:38:42.264Z,91.49
2018-11-01T10:39:42.305Z,91.91
2018-11-01T10:40:42.316Z,92.28
2018-11-01T10:41:42.274Z,91.76
2018-11-01T10:42:42.233Z,91.35
2018-11-01T10:43:42.205Z,91.35
2018-11-01T10:44:42.256Z,91.35
2018-11-01T10:45:42.218Z,90.72
2018-11-01T10:46:42.207Z,90.58
2018-11-01T10:47:42.350Z,90.53
2018-11-01T10:48:42.153Z,90.39
2018-11-01T10:49:42.192Z,88.76
2018-11-01T10:50:42.153Z,88.41
2018-11-01T10:51:42.153Z,88.78
2018-11-01T10:52:42.105Z,84.86
2018-11-01T10:53:42.275Z,86.63
2018-11-01T10:54:42.240Z,86.53
2018-11-01T10:55:42.080Z,85.09
2018-11-01T10:56:42.108Z,83.05
2018-11-01T10:57:42.088Z,84.16
2018-11-01T10:58:42.101Z,85.95
2018-11-01T10:59:42.064Z,85.54
2018-11-01T11:00:42.105Z,82.89
2018-11-01T11:01:42.065Z,81.67
2018-11-01T11:02:42.018Z,80.54
2018-11-01T11:03:42.054Z,80.30
2018-11-01T11:04:42.003Z,79.37
2018-11-01T11:05:42.015Z,80.26
2018-11-01T11:06:42.851Z,78.96
2018-11-01T11:07:41.993Z,78.92
2018-11-01T11:08:41.936Z,75.21
2018-11-01T11:09:41.970Z,73.06
2018-11-01T11:10:42.336Z,76.25
2018-11-01T11:11:41.914Z,80.54
2018-11-01T11:12:41.891Z,82.67
2018-11-01T11:13:42.098Z,79.79
2018-11-01T11:14:42.071Z,82.02
2018-11-01T11:15:41.858Z,82.57
2018-11-01T11:16:41.910Z,82.70
2018-11-01T11:17:41.850Z,81.77
2018-11-01T11:18:41.909Z,83.62
2018-11-01T11:19:41.837Z,87.04
2018-11-01T11:20:42.192Z,87.46
2018-11-01T11:21:42.328Z,85.95
2018-11-01T11:22:41.816Z,83.13
2018-11-01T11:23:41.769Z,82.64
2018-11-01T11:24:41.798Z,82.50
2018-11-01T11:25:41.827Z,82.32
2018-11-01T11:26:41.811Z,78.40
2018-11-01T11:27:41.745Z,77.51
2018-11-01T11:28:41.738Z,73.40
2018-11-01T11:29:41.717Z,75.42
2018-11-01T11:30:41.993Z,74.98
2018-11-01T11:31:41.739Z,74.74
2018-11-01T11:32:41.670Z,74.57
2018-11-01T11:33:41.673Z,75.38
2018-11-01T11:34:41.719Z,76.21
2018-11-01T11:35:41.745Z,76.58
2018-11-01T11:36:41.635Z,74.40
2018-11-01T11:37:41.659Z,74.60
2018-11-01T11:38:41.631Z,74.70
2018-11-01T11:39:41.750Z,75.93
2018-11-01T11:40:41.606Z,78.92
2018-11-01T11:41:41.571Z,81.93
2018-11-01T11:42:41.612Z,80.49
2018-11-01T11:43:41.559Z,79.39
2018-11-01T11:44:41.674Z,78.57
2018-11-01T11:45:41.565Z,80.19
2018-11-01T11:46:41.539Z,81.15
2018-11-01T11:47:41.546Z,81.70
2018-11-01T11:48:41.499Z,82.91
2018-11-01T11:49:41.538Z,84.19
2018-11-01T11:50:41.493Z,85.17
2018-11-01T11:51:41.545Z,84.05
2018-11-01T11:52:41.643Z,85.03
2018-11-01T11:53:41.484Z,83.00
2018-11-01T11:54:41.448Z,82.48
2018-11-01T11:55:41.459Z,82.18
2018-11-01T11:56:41.435Z,82.21
2018-11-01T11:57:41.517Z,83.32
2018-11-01T11:58:41.438Z,84.87
2018-11-01T11:59:41.444Z,84.83
2018-11-01T12:00:41.391Z,84.64
2018-11-01T12:01:41.381Z,83.99
2018-11-01T12:02:41.489Z,83.89
2018-11-01T12:03:41.818Z,83.80
2018-11-01T12:04:41.359Z,85.17
2018-11-01T12:05:41.405Z,85.55
2018-11-01T12:06:41.335Z,81.07
2018-11-01T12:07:41.342Z,78.39
2018-11-01T12:08:41.330Z,78.50
2018-11-01T12:09:41.277Z,82.01
2018-11-01T12:10:41.308Z,83.25
2018-11-01T12:11:41.277Z,82.71
2018-11-01T12:12:41.294Z,79.36
2018-11-01T12:13:41.239Z,79.11
2018-11-01T12:14:41.266Z,76.48
2018-11-01T12:15:41.321Z,74.94
2018-11-01T12:16:41.220Z,78.67
2018-11-01T12:17:41.190Z,82.14
2018-11-01T12:18:41.250Z,82.82
2018-11-01T12:19:41.175Z,79.87
2018-11-01T12:20:41.250Z,79.36
2018-11-01T12:21:41.141Z,79.32
2018-11-01T12:22:41.156Z,76.85
2018-11-01T12:23:41.148Z,75.45
2018-11-01T12:24:41.122Z,74.69
2018-11-01T12:25:41.304Z,71.08
2018-11-01T12:26:41.101Z,71.49
2018-11-01T12:27:41.092Z,68.97
2018-11-01T12:28:41.204Z,70.94
2018-11-01T12:29:41.064Z,71.66
2018-11-01T12:30:41.167Z,69.92
2018-11-01T12:31:41.042Z,69.79
2018-11-01T12:32:41.040Z,71.32
2018-11-01T12:33:41.078Z,75.62
2018-11-01T12:34:41.007Z,77.16
2018-11-01T12:35:41.537Z,77.91
2018-11-01T12:36:41.017Z,78.67
2018-11-01T12:37:40.985Z,80.07
2018-11-01T12:38:40.959Z,79.46
2018-11-01T12:39:40.985Z,79.87
2018-11-01T12:40:41.009Z,78.67
2018-11-01T12:41:41.170Z,78.25
2018-11-01T12:42:40.990Z,79.46
2018-11-01T12:43:40.930Z,81.90
2018-11-01T12:44:40.927Z,81.69
2018-11-01T12:45:40.941Z,80.42
2018-11-01T12:46:40.942Z,79.01
2018-11-01T12:47:40.865Z,79.00
2018-11-01T12:48:40.865Z,75.55
2018-11-01T12:49:40.935Z,75.89
2018-11-01T12:50:40.874Z,74.66
2018-11-01T12:51:40.882Z,73.30
2018-11-01T12:52:40.821Z,74.73
2018-11-01T12:53:40.821Z,75.82